sensor_id;sensor_type;location;lat;lon;timestamp;pressure;altitude;pressure_sealevel;temperature;humidity
4398;BME280;2213;49.720;7.296;2023-02-11T00:02:06;100066.19;;;1.69;100.00
4398;BME280;2213;49.720;7.296;2023-02-11T00:04:36;100053.38;;;1.67;100.00
4398;BME280;2213;49.720;7.296;2023-02-11T00:07:06;100059.47;;;1.66;100.00
4398;BME280;2213;49.720;7.296;2023-02-11T00:09:36;100068.00;;;1.67;100.00
4398;BME280;2213;49.720;7.296;2023-02-11T00:12:07;100070.59;;;1.67;100.00
4398;BME280;2213;49.720;7.296;2023-02-11T00:14:37;100070.59;;;1.67;100.00
4398;BME280;2213;49.720;7.296;2023-02-11T00:17:06;100078.31;;;1.67;100.00
4398;BME280;2213;49.720;7.296;2023-02-11T00:19:35;100072.94;;;1.71;100.00
4398;BME280;2213;49.720;7.296;2023-02-11T00:22:05;100069.53;;;1.71;100.00
4398;BME280;2213;49.720;7.296;2023-02-11T00:24:35;100077.09;;;1.74;100.00
4398;BME280;2213;49.720;7.296;2023-02-11T00:27:05;100070.97;;;1.76;100.00
4398;BME280;2213;49.720;7.296;2023-02-11T00:29:36;100069.28;;;1.75;100.00
4398;BME280;2213;49.720;7.296;2023-02-11T00:32:05;100073.69;;;1.73;100.00
4398;BME280;2213;49.720;7.296;2023-02-11T00:34:36;100074.50;;;1.74;100.00
4398;BME280;2213;49.720;7.296;2023-02-11T00:37:06;100068.63;;;1.72;100.00
4398;BME280;2213;49.720;7.296;2023-02-11T00:39:36;100067.44;;;1.77;100.00
4398;BME280;2213;49.720;7.296;2023-02-11T00:42:05;100065.69;;;1.78;100.00
4398;BME280;2213;49.720;7.296;2023-02-11T00:44:36;100057.78;;;1.81;100.00
4398;BME280;2213;49.720;7.296;2023-02-11T00:47:06;100058.56;;;1.83;100.00
4398;BME280;2213;49.720;7.296;2023-02-11T00:49:34;100059.31;;;1.85;100.00
4398;BME280;2213;49.720;7.296;2023-02-11T00:52:06;100058.56;;;1.83;100.00
4398;BME280;2213;49.720;7.296;2023-02-11T00:54:36;100067.03;;;1.85;100.00
4398;BME280;2213;49.720;7.296;2023-02-11T00:57:06;100072.38;;;1.82;100.00
4398;BME280;2213;49.720;7.296;2023-02-11T00:59:37;100075.72;;;1.84;100.00
4398;BME280;2213;49.720;7.296;2023-02-11T01:02:06;100070.63;;;1.82;100.00
4398;BME280;2213;49.720;7.296;2023-02-11T01:04:36;100071.28;;;1.86;100.00
4398;BME280;2213;49.720;7.296;2023-02-11T01:07:06;100079.88;;;1.86;100.00
4398;BME280;2213;49.720;7.296;2023-02-11T01:09:37;100073.69;;;1.89;100.00
4398;BME280;2213;49.720;7.296;2023-02-11T01:12:08;100070.22;;;1.90;100.00
4398;BME280;2213;49.720;7.296;2023-02-11T01:14:41;100074.44;;;1.91;100.00
4398;BME280;2213;49.720;7.296;2023-02-11T01:17:10;100070.22;;;1.90;100.00
4398;BME280;2213;49.720;7.296;2023-02-11T01:19:40;100069.22;;;1.92;100.00
4398;BME280;2213;49.720;7.296;2023-02-11T01:22:10;100058.91;;;1.92;100.00
4398;BME280;2213;49.720;7.296;2023-02-11T01:24:38;100047.66;;;1.93;100.00
4398;BME280;2213;49.720;7.296;2023-02-11T01:27:07;100044.16;;;1.94;100.00
4398;BME280;2213;49.720;7.296;2023-02-11T01:29:39;100038.03;;;1.97;100.00
4398;BME280;2213;49.720;7.296;2023-02-11T01:32:09;100036.94;;;2.01;100.00
4398;BME280;2213;49.720;7.296;2023-02-11T01:34:39;100022.28;;;2.01;100.00
4398;BME280;2213;49.720;7.296;2023-02-11T01:37:09;100024.78;;;2.03;100.00
4398;BME280;2213;49.720;7.296;2023-02-11T01:39:40;100021.28;;;2.04;100.00
4398;BME280;2213;49.720;7.296;2023-02-11T01:42:14;100015.19;;;2.05;100.00
4398;BME280;2213;49.720;7.296;2023-02-11T01:44:49;100019.44;;;2.06;100.00
4398;BME280;2213;49.720;7.296;2023-02-11T01:47:20;100028.09;;;2.05;100.00
4398;BME280;2213;49.720;7.296;2023-02-11T01:49:54;100012.63;;;2.05;100.00
4398;BME280;2213;49.720;7.296;2023-02-11T01:52:30;100022.03;;;2.06;100.00
4398;BME280;2213;49.720;7.296;2023-02-11T01:55:07;100020.09;;;2.10;100.00
4398;BME280;2213;49.720;7.296;2023-02-11T01:57:58;100009.72;;;2.11;100.00
4398;BME280;2213;49.720;7.296;2023-02-11T02:00:34;100012.13;;;2.14;100.00
4398;BME280;2213;49.720;7.296;2023-02-11T02:03:12;100006.78;;;2.17;100.00
4398;BME280;2213;49.720;7.296;2023-02-11T02:05:50;100001.53;;;2.19;100.00
4398;BME280;2213;49.720;7.296;2023-02-11T02:08:28;100001.44;;;2.20;100.00
4398;BME280;2213;49.720;7.296;2023-02-11T02:10:59;100002.19;;;2.22;100.00
4398;BME280;2213;49.720;7.296;2023-02-11T02:13:32;100013.25;;;2.24;100.00
4398;BME280;2213;49.720;7.296;2023-02-11T02:16:06;100005.53;;;2.24;100.00
4398;BME280;2213;49.720;7.296;2023-02-11T02:18:53;100005.53;;;2.24;100.00
4398;BME280;2213;49.720;7.296;2023-02-11T02:25:19;99996.88;;;2.25;100.00
4398;BME280;2213;49.720;7.296;2023-02-11T02:28:16;99999.34;;;2.27;100.00
4398;BME280;2213;49.720;7.296;2023-02-11T02:31:36;100001.19;;;2.25;100.00
4398;BME280;2213;49.720;7.296;2023-02-11T02:34:18;99995.09;;;2.26;100.00
4398;BME280;2213;49.720;7.296;2023-02-11T02:37:00;99997.78;;;2.24;100.00
4398;BME280;2213;49.720;7.296;2023-02-11T02:39:35;99984.78;;;2.26;100.00
4398;BME280;2213;49.720;7.296;2023-02-11T02:42:06;99992.44;;;2.27;100.00
4398;BME280;2213;49.720;7.296;2023-02-11T02:44:36;100000.38;;;2.24;100.00
4398;BME280;2213;49.720;7.296;2023-02-11T02:47:05;100004.69;;;2.24;100.00
4398;BME280;2213;49.720;7.296;2023-02-11T02:49:37;99998.78;;;2.22;100.00
4398;BME280;2213;49.720;7.296;2023-02-11T02:52:24;100006.44;;;2.23;100.00
4398;BME280;2213;49.720;7.296;2023-02-11T02:55:21;100000.19;;;2.27;100.00
4398;BME280;2213;49.720;7.296;2023-02-11T02:58:31;100003.69;;;2.26;100.00
4398;BME280;2213;49.720;7.296;2023-02-11T03:01:14;99996.03;;;2.25;100.00
4398;BME280;2213;49.720;7.296;2023-02-11T03:03:58;100002.78;;;2.27;100.00
4398;BME280;2213;49.720;7.296;2023-02-11T03:06:42;100013.94;;;2.28;100.00
4398;BME280;2213;49.720;7.296;2023-02-11T03:09:21;100010.44;;;2.29;100.00
4398;BME280;2213;49.720;7.296;2023-02-11T03:11:55;100013.81;;;2.29;100.00
4398;BME280;2213;49.720;7.296;2023-02-11T03:14:27;100018.91;;;2.31;100.00
4398;BME280;2213;49.720;7.296;2023-02-11T03:17:02;100007.69;;;2.32;100.00
4398;BME280;2213;49.720;7.296;2023-02-11T03:19:36;100016.34;;;2.31;100.00
4398;BME280;2213;49.720;7.296;2023-02-11T03:22:19;100010.25;;;2.32;100.00
4398;BME280;2213;49.720;7.296;2023-02-11T03:24:52;99999.09;;;2.31;100.00
4398;BME280;2213;49.720;7.296;2023-02-11T03:27:29;100005.09;;;2.32;100.00
4398;BME280;2213;49.720;7.296;2023-02-11T03:30:06;100002.53;;;2.32;100.00
4398;BME280;2213;49.720;7.296;2023-02-11T03:32:41;100001.56;;;2.33;100.00
4398;BME280;2213;49.720;7.296;2023-02-11T03:35:21;100007.94;;;2.27;100.00
4398;BME280;2213;49.720;7.296;2023-02-11T03:37:58;100005.34;;;2.27;100.00
4398;BME280;2213;49.720;7.296;2023-02-11T03:40:35;100002.94;;;2.24;100.00
4398;BME280;2213;49.720;7.296;2023-02-11T03:43:12;99988.38;;;2.23;100.00
4398;BME280;2213;49.720;7.296;2023-02-11T03:45:47;99989.88;;;2.27;100.00
4398;BME280;2213;49.720;7.296;2023-02-11T03:48:23;99992.28;;;2.30;100.00
4398;BME280;2213;49.720;7.296;2023-02-11T03:50:55;99986.09;;;2.33;100.00
4398;BME280;2213;49.720;7.296;2023-02-11T03:53:28;99988.84;;;2.30;100.00
4398;BME280;2213;49.720;7.296;2023-02-11T03:56:02;99980.19;;;2.31;100.00
4398;BME280;2213;49.720;7.296;2023-02-11T03:58:33;99974.97;;;2.32;100.00
4398;BME280;2213;49.720;7.296;2023-02-11T04:01:05;99981.88;;;2.32;100.00
4398;BME280;2213;49.720;7.296;2023-02-11T04:03:37;99975.13;;;2.29;100.00
4398;BME280;2213;49.720;7.296;2023-02-11T04:06:08;99973.28;;;2.31;100.00
4398;BME280;2213;49.720;7.296;2023-02-11T04:08:39;99973.28;;;2.31;100.00
4398;BME280;2213;49.720;7.296;2023-02-11T04:11:08;99968.03;;;2.33;100.00
4398;BME280;2213;49.720;7.296;2023-02-11T04:13:37;99965.44;;;2.33;100.00
4398;BME280;2213;49.720;7.296;2023-02-11T04:16:07;99974.19;;;2.30;100.00
4398;BME280;2213;49.720;7.296;2023-02-11T04:18:37;99963.81;;;2.32;100.00
4398;BME280;2213;49.720;7.296;2023-02-11T04:21:06;99955.41;;;2.28;100.00
4398;BME280;2213;49.720;7.296;2023-02-11T04:23:38;99945.81;;;2.30;100.00
4398;BME280;2213;49.720;7.296;2023-02-11T04:26:08;99926.19;;;2.28;100.00
4398;BME280;2213;49.720;7.296;2023-02-11T04:28:38;99916.78;;;2.27;100.00
4398;BME280;2213;49.720;7.296;2023-02-11T04:31:07;99909.03;;;2.27;100.00
4398;BME280;2213;49.720;7.296;2023-02-11T04:33:39;99898.97;;;2.22;100.00
4398;BME280;2213;49.720;7.296;2023-02-11T04:36:10;99891.22;;;2.22;100.00
4398;BME280;2213;49.720;7.296;2023-02-11T04:38:41;99900.75;;;2.22;100.00
4398;BME280;2213;49.720;7.296;2023-02-11T04:41:12;99898.41;;;2.17;100.00
4398;BME280;2213;49.720;7.296;2023-02-11T04:43:42;99904.50;;;2.16;100.00
4398;BME280;2213;49.720;7.296;2023-02-11T04:46:11;99909.66;;;2.16;100.00
4398;BME280;2213;49.720;7.296;2023-02-11T04:48:42;99916.66;;;2.14;100.00
4398;BME280;2213;49.720;7.296;2023-02-11T04:51:12;99919.59;;;2.08;100.00
4398;BME280;2213;49.720;7.296;2023-02-11T04:53:42;99921.50;;;2.05;100.00
4398;BME280;2213;49.720;7.296;2023-02-11T04:56:12;99924.16;;;2.03;100.00
4398;BME280;2213;49.720;7.296;2023-02-11T04:58:42;99917.03;;;1.92;100.00
4398;BME280;2213;49.720;7.296;2023-02-11T05:01:14;99903.97;;;1.95;100.00
4398;BME280;2213;49.720;7.296;2023-02-11T05:03:44;99911.81;;;1.94;100.00
4398;BME280;2213;49.720;7.296;2023-02-11T05:06:16;99925.44;;;1.96;100.00
4398;BME280;2213;49.720;7.296;2023-02-11T05:08:46;99920.53;;;1.91;100.00
4398;BME280;2213;49.720;7.296;2023-02-11T05:11:20;99919.78;;;1.89;100.00
4398;BME280;2213;49.720;7.296;2023-02-11T05:13:50;99919.88;;;1.88;100.00
4398;BME280;2213;49.720;7.296;2023-02-11T05:16:21;99929.28;;;1.89;100.00
4398;BME280;2213;49.720;7.296;2023-02-11T05:18:51;99937.91;;;1.88;100.00
4398;BME280;2213;49.720;7.296;2023-02-11T05:21:22;99929.44;;;1.86;100.00
4398;BME280;2213;49.720;7.296;2023-02-11T05:23:54;99932.28;;;1.81;100.00
4398;BME280;2213;49.720;7.296;2023-02-11T05:26:24;99940.28;;;1.77;100.00
4398;BME280;2213;49.720;7.296;2023-02-11T05:28:53;99939.34;;;1.78;100.00
4398;BME280;2213;49.720;7.296;2023-02-11T05:31:24;99940.13;;;1.80;100.00
4398;BME280;2213;49.720;7.296;2023-02-11T05:33:53;99937.59;;;1.78;100.00
4398;BME280;2213;49.720;7.296;2023-02-11T05:36:22;99931.63;;;1.78;100.00
4398;BME280;2213;49.720;7.296;2023-02-11T05:38:55;99922.97;;;1.79;100.00
4398;BME280;2213;49.720;7.296;2023-02-11T05:41:24;99926.63;;;1.75;100.00
4398;BME280;2213;49.720;7.296;2023-02-11T05:43:54;99925.31;;;1.68;100.00
4398;BME280;2213;49.720;7.296;2023-02-11T05:46:23;99922.84;;;1.66;100.00
4398;BME280;2213;49.720;7.296;2023-02-11T05:48:53;99928.00;;;1.66;100.00
4398;BME280;2213;49.720;7.296;2023-02-11T05:51:23;99916.91;;;1.64;100.00
4398;BME280;2213;49.720;7.296;2023-02-11T05:53:55;99923.00;;;1.63;100.00
4398;BME280;2213;49.720;7.296;2023-02-11T05:56:24;99931.81;;;1.59;100.00
4398;BME280;2213;49.720;7.296;2023-02-11T05:58:54;99937.81;;;1.60;100.00
4398;BME280;2213;49.720;7.296;2023-02-11T06:01:23;99936.81;;;1.62;100.00
4398;BME280;2213;49.720;7.296;2023-02-11T06:03:53;99934.13;;;1.64;100.00
4398;BME280;2213;49.720;7.296;2023-02-11T06:06:24;99935.91;;;1.63;100.00
4398;BME280;2213;49.720;7.296;2023-02-11T06:08:55;99939.44;;;1.61;100.00
4398;BME280;2213;49.720;7.296;2023-02-11T06:11:25;99942.84;;;1.61;100.00
4398;BME280;2213;49.720;7.296;2023-02-11T06:13:55;99930.81;;;1.62;100.00
4398;BME280;2213;49.720;7.296;2023-02-11T06:16:26;99924.31;;;1.55;100.00
4398;BME280;2213;49.720;7.296;2023-02-11T06:18:56;99926.31;;;1.49;100.00
4398;BME280;2213;49.720;7.296;2023-02-11T06:21:26;99926.59;;;1.45;100.00
4398;BME280;2213;49.720;7.296;2023-02-11T06:24:11;99926.66;;;1.43;100.00
4398;BME280;2213;49.720;7.296;2023-02-11T06:26:40;99930.91;;;1.44;100.00
4398;BME280;2213;49.720;7.296;2023-02-11T06:29:10;99923.97;;;1.29;100.00
4398;BME280;2213;49.720;7.296;2023-02-11T06:31:40;99928.31;;;1.29;100.00
4398;BME280;2213;49.720;7.296;2023-02-11T06:34:09;99932.94;;;1.22;100.00
4398;BME280;2213;49.720;7.296;2023-02-11T06:36:39;99929.53;;;1.22;100.00
4398;BME280;2213;49.720;7.296;2023-02-11T06:39:12;99933.22;;;1.18;100.00
4398;BME280;2213;49.720;7.296;2023-02-11T06:41:42;99941.75;;;1.18;100.00
4398;BME280;2213;49.720;7.296;2023-02-11T06:44:13;99939.09;;;1.20;100.00
4398;BME280;2213;49.720;7.296;2023-02-11T06:46:43;99946.09;;;1.18;100.00
4398;BME280;2213;49.720;7.296;2023-02-11T06:49:12;99947.00;;;1.17;100.00
4398;BME280;2213;49.720;7.296;2023-02-11T06:51:42;99947.06;;;1.15;100.00
4398;BME280;2213;49.720;7.296;2023-02-11T06:54:13;99942.56;;;1.03;100.00
4398;BME280;2213;49.720;7.296;2023-02-11T06:56:44;99944.56;;;0.98;100.00
4398;BME280;2213;49.720;7.296;2023-02-11T06:59:16;99949.41;;;1.04;100.00
4398;BME280;2213;49.720;7.296;2023-02-11T07:01:47;99954.09;;;0.96;100.00
4398;BME280;2213;49.720;7.296;2023-02-11T07:04:16;99953.03;;;1.00;100.00
4398;BME280;2213;49.720;7.296;2023-02-11T07:06:47;99944.56;;;0.98;100.00
4398;BME280;2213;49.720;7.296;2023-02-11T07:09:18;99937.88;;;0.94;100.00
4398;BME280;2213;49.720;7.296;2023-02-11T07:11:48;99944.88;;;0.92;100.00
4398;BME280;2213;49.720;7.296;2023-02-11T07:14:17;99951.84;;;0.90;100.00
4398;BME280;2213;49.720;7.296;2023-02-11T07:16:46;99954.34;;;0.91;100.00
4398;BME280;2213;49.720;7.296;2023-02-11T07:19:15;99957.59;;;0.95;100.00
4398;BME280;2213;49.720;7.296;2023-02-11T07:21:45;99956.69;;;0.96;100.00
4398;BME280;2213;49.720;7.296;2023-02-11T07:24:16;99952.66;;;0.90;100.00
4398;BME280;2213;49.720;7.296;2023-02-11T07:26:46;99963.38;;;0.83;100.00
4398;BME280;2213;49.720;7.296;2023-02-11T07:29:16;99969.44;;;0.82;100.00
4398;BME280;2213;49.720;7.296;2023-02-11T07:31:45;99973.00;;;0.79;100.00
4398;BME280;2213;49.720;7.296;2023-02-11T07:34:14;99983.03;;;0.84;100.00
4398;BME280;2213;49.720;7.296;2023-02-11T07:36:44;99988.69;;;0.75;100.00
4398;BME280;2213;49.720;7.296;2023-02-11T07:39:17;99983.53;;;0.75;100.00
4398;BME280;2213;49.720;7.296;2023-02-11T07:41:49;99993.97;;;0.72;100.00
4398;BME280;2213;49.720;7.296;2023-02-11T07:44:18;99988.53;;;0.78;100.00
4398;BME280;2213;49.720;7.296;2023-02-11T07:46:47;99983.22;;;0.81;100.00
4398;BME280;2213;49.720;7.296;2023-02-11T07:49:18;99984.56;;;0.88;100.00
4398;BME280;2213;49.720;7.296;2023-02-11T07:51:49;99985.06;;;0.94;100.00
4398;BME280;2213;49.720;7.296;2023-02-11T07:54:20;99984.00;;;0.98;100.00
4398;BME280;2213;49.720;7.296;2023-02-11T07:56:50;99981.13;;;1.05;100.00
4398;BME280;2213;49.720;7.296;2023-02-11T07:59:19;99984.28;;;1.10;100.00
4398;BME280;2213;49.720;7.296;2023-02-11T08:01:48;99977.97;;;1.15;100.00
4398;BME280;2213;49.720;7.296;2023-02-11T08:04:19;99980.31;;;1.20;100.00
4398;BME280;2213;49.720;7.296;2023-02-11T08:06:49;99981.00;;;1.23;100.00
4398;BME280;2213;49.720;7.296;2023-02-11T08:09:21;99979.03;;;1.28;100.00
4398;BME280;2213;49.720;7.296;2023-02-11T08:11:52;99981.28;;;1.34;100.00
4398;BME280;2213;49.720;7.296;2023-02-11T08:14:21;99978.44;;;1.39;100.00
4398;BME280;2213;49.720;7.296;2023-02-11T08:16:52;99978.19;;;1.43;100.00
4398;BME280;2213;49.720;7.296;2023-02-11T08:19:22;99985.69;;;1.48;100.00
4398;BME280;2213;49.720;7.296;2023-02-11T08:21:54;99983.84;;;1.50;100.00
4398;BME280;2213;49.720;7.296;2023-02-11T08:24:25;99992.25;;;1.53;100.00
4398;BME280;2213;49.720;7.296;2023-02-11T08:26:55;99992.84;;;1.59;100.00
4398;BME280;2213;49.720;7.296;2023-02-11T08:29:25;99990.09;;;1.62;100.00
4398;BME280;2213;49.720;7.296;2023-02-11T08:31:54;99990.66;;;1.67;100.00
4398;BME280;2213;49.720;7.296;2023-02-11T08:34:24;99988.69;;;1.72;100.00
4398;BME280;2213;49.720;7.296;2023-02-11T08:36:54;99993.19;;;1.84;100.00
4398;BME280;2213;49.720;7.296;2023-02-11T08:39:25;100002.16;;;1.92;100.00
4398;BME280;2213;49.720;7.296;2023-02-11T08:41:55;100005.16;;;2.00;100.00
4398;BME280;2213;49.720;7.296;2023-02-11T08:44:25;100009.91;;;2.08;100.00
4398;BME280;2213;49.720;7.296;2023-02-11T08:46:56;100007.69;;;2.16;100.00
4398;BME280;2213;49.720;7.296;2023-02-11T08:49:24;100011.59;;;2.23;100.00
4398;BME280;2213;49.720;7.296;2023-02-11T08:51:54;100006.84;;;2.31;100.00
4398;BME280;2213;49.720;7.296;2023-02-11T08:54:30;100003.00;;;2.38;100.00
4398;BME280;2213;49.720;7.296;2023-02-11T08:57:00;100012.78;;;2.47;100.00
4398;BME280;2213;49.720;7.296;2023-02-11T08:59:29;100010.69;;;2.54;100.00
4398;BME280;2213;49.720;7.296;2023-02-11T09:01:59;100001.66;;;2.61;100.00
4398;BME280;2213;49.720;7.296;2023-02-11T09:04:29;99994.41;;;2.68;100.00
4398;BME280;2213;49.720;7.296;2023-02-11T09:07:00;99997.63;;;2.71;100.00
4398;BME280;2213;49.720;7.296;2023-02-11T09:09:31;99998.22;;;2.76;100.00
4398;BME280;2213;49.720;7.296;2023-02-11T09:12:01;100002.94;;;2.84;100.00
4398;BME280;2213;49.720;7.296;2023-02-11T09:14:32;99999.97;;;2.90;100.00
4398;BME280;2213;49.720;7.296;2023-02-11T09:17:01;99999.59;;;2.96;100.00
4398;BME280;2213;49.720;7.296;2023-02-11T09:19:31;99997.50;;;3.02;100.00
4398;BME280;2213;49.720;7.296;2023-02-11T09:22:01;99995.38;;;3.09;100.00
4398;BME280;2213;49.720;7.296;2023-02-11T09:24:32;99993.34;;;3.14;100.00
4398;BME280;2213;49.720;7.296;2023-02-11T09:27:02;99984.22;;;3.23;100.00
4398;BME280;2213;49.720;7.296;2023-02-11T09:29:32;99985.47;;;3.30;100.00
4398;BME280;2213;49.720;7.296;2023-02-11T09:32:03;99989.34;;;3.37;100.00
4398;BME280;2213;49.720;7.296;2023-02-11T09:34:36;99991.47;;;3.44;100.00
4398;BME280;2213;49.720;7.296;2023-02-11T09:37:06;100000.72;;;3.48;100.00
4398;BME280;2213;49.720;7.296;2023-02-11T09:39:36;99996.00;;;3.55;100.00
4398;BME280;2213;49.720;7.296;2023-02-11T09:42:39;99999.97;;;3.61;100.00
4398;BME280;2213;49.720;7.296;2023-02-11T09:45:17;100007.16;;;3.70;100.00
4398;BME280;2213;49.720;7.296;2023-02-11T09:47:53;100014.53;;;3.76;100.00
4398;BME280;2213;49.720;7.296;2023-02-11T09:50:29;100015.16;;;3.79;100.00
4398;BME280;2213;49.720;7.296;2023-02-11T09:53:01;100020.78;;;3.86;100.00
4398;BME280;2213;49.720;7.296;2023-02-11T09:55:37;100029.09;;;3.91;100.00
4398;BME280;2213;49.720;7.296;2023-02-11T09:58:14;100022.63;;;3.98;100.00
4398;BME280;2213;49.720;7.296;2023-02-11T10:00:49;100023.16;;;4.03;100.00
4398;BME280;2213;49.720;7.296;2023-02-11T10:03:51;100039.03;;;4.11;100.00
4398;BME280;2213;49.720;7.296;2023-02-11T10:06:38;100026.63;;;4.16;100.00
4398;BME280;2213;49.720;7.296;2023-02-11T10:09:31;100032.13;;;4.24;100.00
4398;BME280;2213;49.720;7.296;2023-02-11T10:12:25;100043.13;;;4.28;100.00
4398;BME280;2213;49.720;7.296;2023-02-11T10:15:36;100040.66;;;4.26;100.00
4398;BME280;2213;49.720;7.296;2023-02-11T10:18:32;100030.31;;;4.26;100.00
4398;BME280;2213;49.720;7.296;2023-02-11T10:21:21;100035.06;;;4.32;100.00
4398;BME280;2213;49.720;7.296;2023-02-11T10:24:02;100040.25;;;4.32;100.00
4398;BME280;2213;49.720;7.296;2023-02-11T10:26:33;100040.88;;;4.36;100.00
4398;BME280;2213;49.720;7.296;2023-02-11T10:29:33;100049.78;;;4.32;100.00
4398;BME280;2213;49.720;7.296;2023-02-11T10:32:14;100042.75;;;4.34;100.00
4398;BME280;2213;49.720;7.296;2023-02-11T10:34:48;100041.94;;;4.33;100.00
4398;BME280;2213;49.720;7.296;2023-02-11T10:37:19;100040.97;;;4.34;100.00
4398;BME280;2213;49.720;7.296;2023-02-11T10:39:49;100044.19;;;4.38;100.00
4398;BME280;2213;49.720;7.296;2023-02-11T10:42:18;100048.38;;;4.40;100.00
4398;BME280;2213;49.720;7.296;2023-02-11T10:44:59;100052.72;;;4.40;100.00
4398;BME280;2213;49.720;7.296;2023-02-11T10:47:35;100048.19;;;4.43;100.00
4398;BME280;2213;49.720;7.296;2023-02-11T10:50:21;100038.25;;;4.50;100.00
4398;BME280;2213;49.720;7.296;2023-02-11T10:52:51;100045.53;;;4.57;100.00
4398;BME280;2213;49.720;7.296;2023-02-11T10:55:25;100040.44;;;4.56;100.00
4398;BME280;2213;49.720;7.296;2023-02-11T10:57:59;100035.69;;;4.63;100.00
4398;BME280;2213;49.720;7.296;2023-02-11T11:00:35;100035.47;;;4.66;100.00
4398;BME280;2213;49.720;7.296;2023-02-11T11:03:17;100039.53;;;4.70;100.00
4398;BME280;2213;49.720;7.296;2023-02-11T11:05:49;100036.00;;;4.71;100.00
4398;BME280;2213;49.720;7.296;2023-02-11T11:08:19;100037.28;;;4.78;100.00
4398;BME280;2213;49.720;7.296;2023-02-11T11:11:02;100032.41;;;4.86;100.00
4398;BME280;2213;49.720;7.296;2023-02-11T11:13:35;100034.81;;;4.89;100.00
4398;BME280;2213;49.720;7.296;2023-02-11T11:16:25;100032.72;;;4.94;100.00
4398;BME280;2213;49.720;7.296;2023-02-11T11:19:20;100030.44;;;5.02;100.00
4398;BME280;2213;49.720;7.296;2023-02-11T11:21:54;100035.13;;;5.10;100.00
4398;BME280;2213;49.720;7.296;2023-02-11T11:24:31;100032.94;;;5.16;100.00
4398;BME280;2213;49.720;7.296;2023-02-11T11:27:03;100023.81;;;5.23;100.00
4398;BME280;2213;49.720;7.296;2023-02-11T11:29:38;100029.28;;;5.31;100.00
4398;BME280;2213;49.720;7.296;2023-02-11T11:32:18;100030.75;;;5.35;100.00
4398;BME280;2213;49.720;7.296;2023-02-11T11:34:51;100024.22;;;5.42;100.00
4398;BME280;2213;49.720;7.296;2023-02-11T11:37:26;100016.22;;;5.45;100.00
4398;BME280;2213;49.720;7.296;2023-02-11T11:40:01;100014.00;;;5.52;100.00
4398;BME280;2213;49.720;7.296;2023-02-11T11:42:34;100016.91;;;5.60;100.00
4398;BME280;2213;49.720;7.296;2023-02-11T11:45:23;100020.88;;;5.66;100.00
4398;BME280;2213;49.720;7.296;2023-02-11T11:47:58;100018.66;;;5.72;100.00
4398;BME280;2213;49.720;7.296;2023-02-11T11:50:34;100022.59;;;5.78;100.00
4398;BME280;2213;49.720;7.296;2023-02-11T11:53:14;100019.78;;;5.81;100.00
4398;BME280;2213;49.720;7.296;2023-02-11T11:55:47;100026.41;;;5.85;100.00
4398;BME280;2213;49.720;7.296;2023-02-11T11:58:23;100021.88;;;5.88;100.00
4398;BME280;2213;49.720;7.296;2023-02-11T12:01:04;100013.75;;;5.93;100.00
4398;BME280;2213;49.720;7.296;2023-02-11T12:04:26;100012.50;;;5.98;100.00
4398;BME280;2213;49.720;7.296;2023-02-11T12:07:14;100021.72;;;6.02;100.00
4398;BME280;2213;49.720;7.296;2023-02-11T12:10:04;100021.59;;;6.04;100.00
4398;BME280;2213;49.720;7.296;2023-02-11T12:12:51;100022.09;;;6.09;100.00
4398;BME280;2213;49.720;7.296;2023-02-11T12:15:35;100018.47;;;6.12;100.00
4398;BME280;2213;49.720;7.296;2023-02-11T12:18:20;100015.75;;;6.13;100.00
4398;BME280;2213;49.720;7.296;2023-02-11T12:21:33;100017.91;;;6.19;100.00
4398;BME280;2213;49.720;7.296;2023-02-11T12:24:21;100025.47;;;6.22;100.00
4398;BME280;2213;49.720;7.296;2023-02-11T12:27:02;100021.94;;;6.23;100.00
4398;BME280;2213;49.720;7.296;2023-02-11T12:29:43;100028.81;;;6.24;100.00
4398;BME280;2213;49.720;7.296;2023-02-11T12:32:24;100027.16;;;6.23;100.00
4398;BME280;2213;49.720;7.296;2023-02-11T12:35:21;100019.25;;;6.25;100.00
4398;BME280;2213;49.720;7.296;2023-02-11T12:39:01;100020.56;;;6.30;100.00
4398;BME280;2213;49.720;7.296;2023-02-11T12:41:52;100020.25;;;6.35;100.00
4398;BME280;2213;49.720;7.296;2023-02-11T12:45:02;100021.28;;;6.32;100.00
4398;BME280;2213;49.720;7.296;2023-02-11T12:47:49;100013.47;;;6.32;100.00
4398;BME280;2213;49.720;7.296;2023-02-11T12:50:29;100012.31;;;6.36;100.00
4398;BME280;2213;49.720;7.296;2023-02-11T12:54:03;100011.25;;;6.39;100.00
4398;BME280;2213;49.720;7.296;2023-02-11T12:56:45;100014.38;;;6.44;100.00
4398;BME280;2213;49.720;7.296;2023-02-11T12:59:31;100009.69;;;6.49;100.00
4398;BME280;2213;49.720;7.296;2023-02-11T13:02:13;100001.03;;;6.48;100.00
4398;BME280;2213;49.720;7.296;2023-02-11T13:04:50;100002.69;;;6.49;100.00
4398;BME280;2213;49.720;7.296;2023-02-11T13:07:30;100000.81;;;6.51;100.00
4398;BME280;2213;49.720;7.296;2023-02-11T13:10:25;100004.34;;;6.50;100.00
4398;BME280;2213;49.720;7.296;2023-02-11T13:12:58;100000.59;;;6.54;100.00
4398;BME280;2213;49.720;7.296;2023-02-11T13:15:52;100001.19;;;6.58;100.00
4398;BME280;2213;49.720;7.296;2023-02-11T13:18:38;99998.47;;;6.59;100.00
4398;BME280;2213;49.720;7.296;2023-02-11T13:21:28;99992.47;;;6.59;100.00
4398;BME280;2213;49.720;7.296;2023-02-11T13:24:07;99986.44;;;6.58;100.00
4398;BME280;2213;49.720;7.296;2023-02-11T13:26:51;99983.69;;;6.60;100.00
4398;BME280;2213;49.720;7.296;2023-02-11T13:29:37;99986.19;;;6.62;100.00
4398;BME280;2213;49.720;7.296;2023-02-11T13:32:13;99987.84;;;6.63;100.00
4398;BME280;2213;49.720;7.296;2023-02-11T13:34:57;99981.81;;;6.62;100.00
4398;BME280;2213;49.720;7.296;2023-02-11T13:37:35;99982.66;;;6.63;100.00
4398;BME280;2213;49.720;7.296;2023-02-11T13:40:19;99984.91;;;6.67;100.00
4398;BME280;2213;49.720;7.296;2023-02-11T13:42:54;99977.00;;;6.69;100.00
4398;BME280;2213;49.720;7.296;2023-02-11T13:45:31;99972.03;;;6.66;100.00
4398;BME280;2213;49.720;7.296;2023-02-11T13:48:05;99975.34;;;6.68;100.00
4398;BME280;2213;49.720;7.296;2023-02-11T13:50:38;99985.50;;;6.71;100.00
4398;BME280;2213;49.720;7.296;2023-02-11T13:53:16;99974.88;;;6.74;100.00
4398;BME280;2213;49.720;7.296;2023-02-11T13:55:49;99977.47;;;6.74;100.00
4398;BME280;2213;49.720;7.296;2023-02-11T13:58:37;99968.72;;;6.75;100.00
4398;BME280;2213;49.720;7.296;2023-02-11T14:01:40;99971.94;;;6.78;100.00
4398;BME280;2213;49.720;7.296;2023-02-11T14:04:27;99968.25;;;6.81;100.00
4398;BME280;2213;49.720;7.296;2023-02-11T14:07:27;99973.47;;;6.81;100.00